CheckWX is a tool to help pilots better visualize weather data.  It is not intended as a substitute for an official pre-flight weather briefing.

02:50:14 UTC

KBIV METAR
West Michigan Regional Airport
Holland, Michigan, USA
Current

35 mins ago

KBIV 230215Z AUTO 25011KT 6SM -RA BR BKN008 BKN018 OVC027 22/21 A2979 RMK AO2 PK WND 25027/0154 P0031 T02170211
Observed
Sep-23 @ 02:15 UTC
Wind
  • 250° at 11 KTS
Visibility
6 SM
Flight Rules
IFR
Conditions
Light Rain, Mist
Cloud Levels
  • Broken at 800' AGL
  • Broken at 1,800' AGL
  • Overcast at 2,700' AGL
Temperature
22°C / 72°F
Dewpoint
21°C / 70°F
Humidity
94%
Altimeter
29.79" Hg
Pressure
1008.82 hPa
Current Rain
0.31"
Previous

57 mins ago

KBIV 230153Z AUTO 27014G23KT 1SM +RA BR FEW004 BKN016 OVC027 21/21 A2979 RMK AO2 SLP083 P0144 T02110206
Observed
Sep-23 @ 01:53 UTC
Wind
  • 270° at 14 KTS
  • Gusting to 23 KTS
Visibility
1 SM
Flight Rules
IFR
Conditions
Heavy Rain, Mist
Cloud Levels
  • Few at 400' AGL
  • Broken at 1,600' AGL
  • Overcast at 2,700' AGL
Temperature
21°C / 70°F
Dewpoint
21°C / 70°F
Humidity
100%
Altimeter
29.79" Hg
Pressure
1008.82 hPa
Current Rain
1.44"
Previous

1 hour ago

KBIV 230132Z AUTO 23004KT 1SM +RA BR FEW006 BKN010 OVC032 21/21 A2979 RMK AO2 P0093 T02110211
Observed
Sep-23 @ 01:32 UTC
Wind
  • 230° at 4 KTS
Visibility
1 SM
Flight Rules
IFR
Conditions
Heavy Rain, Mist
Cloud Levels
  • Few at 600' AGL
  • Broken at 1,000' AGL
  • Overcast at 3,200' AGL
Temperature
21°C / 70°F
Dewpoint
21°C / 70°F
Humidity
100%
Altimeter
29.79" Hg
Pressure
1008.82 hPa
Current Rain
0.93"